sensor_id;sensor_type;location;lat;lon;timestamp;pressure;altitude;pressure_sealevel;temperature;humidity
74524;BME280;63074;44.696;10.358;2023-03-03T00:01:38;100131.16;;;5.63;100.00
74524;BME280;63074;44.696;10.358;2023-03-03T00:04:04;100128.91;;;5.60;100.00
74524;BME280;63074;44.696;10.358;2023-03-03T00:06:30;100137.72;;;5.60;100.00
74524;BME280;63074;44.696;10.358;2023-03-03T00:08:57;100135.06;;;5.67;100.00
74524;BME280;63074;44.696;10.358;2023-03-03T00:11:23;100130.78;;;5.72;100.00
74524;BME280;63074;44.696;10.358;2023-03-03T00:13:51;100131.19;;;5.69;100.00
74524;BME280;63074;44.696;10.358;2023-03-03T00:18:55;100133.25;;;5.81;100.00
74524;BME280;63074;44.696;10.358;2023-03-03T00:21:29;100129.34;;;5.83;100.00
74524;BME280;63074;44.696;10.358;2023-03-03T00:24:23;100134.69;;;5.83;100.00
74524;BME280;63074;44.696;10.358;2023-03-03T00:26:51;100127.72;;;5.82;100.00
74524;BME280;63074;44.696;10.358;2023-03-03T00:29:40;100131.81;;;5.78;100.00
74524;BME280;63074;44.696;10.358;2023-03-03T00:32:20;100130.19;;;5.77;100.00
74524;BME280;63074;44.696;10.358;2023-03-03T00:34:47;100127.09;;;5.80;100.00
74524;BME280;63074;44.696;10.358;2023-03-03T00:39:50;100120.31;;;5.77;100.00
74524;BME280;63074;44.696;10.358;2023-03-03T00:42:17;100122.19;;;5.77;100.00
74524;BME280;63074;44.696;10.358;2023-03-03T00:44:57;100118.47;;;5.78;100.00
74524;BME280;63074;44.696;10.358;2023-03-03T00:47:31;100111.09;;;5.80;100.00
74524;BME280;63074;44.696;10.358;2023-03-03T00:53:14;100103.28;;;5.65;100.00
74524;BME280;63074;44.696;10.358;2023-03-03T00:55:34;100104.91;;;5.60;100.00
74524;BME280;63074;44.696;10.358;2023-03-03T00:58:00;100105.31;;;5.57;100.00
74524;BME280;63074;44.696;10.358;2023-03-03T01:00:26;100094.44;;;5.58;100.00
74524;BME280;63074;44.696;10.358;2023-03-03T01:02:52;100096.88;;;5.53;100.00
74524;BME280;63074;44.696;10.358;2023-03-03T01:05:19;100097.69;;;5.54;100.00
74524;BME280;63074;44.696;10.358;2023-03-03T01:07:45;100097.09;;;5.52;100.00
74524;BME280;63074;44.696;10.358;2023-03-03T01:10:12;100096.88;;;5.47;100.00
74524;BME280;63074;44.696;10.358;2023-03-03T01:12:39;100096.69;;;5.48;100.00
74524;BME280;63074;44.696;10.358;2023-03-03T01:15:09;100091.94;;;5.37;100.00
74524;BME280;63074;44.696;10.358;2023-03-03T01:17:37;100091.72;;;5.32;100.00
74524;BME280;63074;44.696;10.358;2023-03-03T01:20:06;100095.00;;;5.34;100.00
74524;BME280;63074;44.696;10.358;2023-03-03T01:22:32;100082.50;;;5.34;100.00
74524;BME280;63074;44.696;10.358;2023-03-03T01:24:58;100091.06;;;5.23;100.00
74524;BME280;63074;44.696;10.358;2023-03-03T01:27:25;100090.44;;;5.15;100.00
74524;BME280;63074;44.696;10.358;2023-03-03T01:29:52;100091.25;;;5.15;100.00
74524;BME280;63074;44.696;10.358;2023-03-03T01:32:19;100090.41;;;5.08;100.00
74524;BME280;63074;44.696;10.358;2023-03-03T01:34:45;100083.06;;;5.17;100.00
74524;BME280;63074;44.696;10.358;2023-03-03T01:37:11;100085.44;;;4.98;100.00
74524;BME280;63074;44.696;10.358;2023-03-03T01:39:37;100086.59;;;4.83;100.00
74524;BME280;63074;44.696;10.358;2023-03-03T01:42:03;100093.03;;;4.67;100.00
74524;BME280;63074;44.696;10.358;2023-03-03T01:44:29;100087.72;;;4.67;100.00
74524;BME280;63074;44.696;10.358;2023-03-03T01:47:11;100089.03;;;4.78;100.00
74524;BME280;63074;44.696;10.358;2023-03-03T01:49:47;100082.31;;;4.88;100.00
74524;BME280;63074;44.696;10.358;2023-03-03T01:52:35;100073.25;;;4.76;100.00
74524;BME280;63074;44.696;10.358;2023-03-03T01:55:22;100078.56;;;4.76;100.00
74524;BME280;63074;44.696;10.358;2023-03-03T01:58:01;100070.00;;;4.81;100.00
74524;BME280;63074;44.696;10.358;2023-03-03T02:00:29;100071.19;;;4.78;100.00
74524;BME280;63074;44.696;10.358;2023-03-03T02:02:56;100069.16;;;4.80;100.00
74524;BME280;63074;44.696;10.358;2023-03-03T02:05:23;100064.66;;;4.81;100.00
74524;BME280;63074;44.696;10.358;2023-03-03T02:07:51;100063.25;;;4.85;100.00
74524;BME280;63074;44.696;10.358;2023-03-03T02:10:19;100052.75;;;4.77;100.00
74524;BME280;63074;44.696;10.358;2023-03-03T02:12:52;100058.72;;;4.79;100.00
74524;BME280;63074;44.696;10.358;2023-03-03T02:17:46;100050.06;;;4.70;100.00
74524;BME280;63074;44.696;10.358;2023-03-03T02:25:41;100042.91;;;4.70;100.00
74524;BME280;63074;44.696;10.358;2023-03-03T02:28:08;100048.84;;;4.72;100.00
74524;BME280;63074;44.696;10.358;2023-03-03T02:30:37;100048.63;;;4.67;100.00
74524;BME280;63074;44.696;10.358;2023-03-03T02:33:04;100044.44;;;4.52;100.00
74524;BME280;63074;44.696;10.358;2023-03-03T02:35:34;100045.19;;;4.39;100.00
74524;BME280;63074;44.696;10.358;2023-03-03T02:38:21;100048.91;;;4.45;100.00
74524;BME280;63074;44.696;10.358;2023-03-03T02:43:53;100040.94;;;4.17;100.00
74524;BME280;63074;44.696;10.358;2023-03-03T02:46:22;100034.94;;;4.36;100.00
74524;BME280;63074;44.696;10.358;2023-03-03T02:48:48;100031.88;;;4.39;100.00
74524;BME280;63074;44.696;10.358;2023-03-03T02:51:15;100031.44;;;4.35;100.00
74524;BME280;63074;44.696;10.358;2023-03-03T02:53:41;100030.22;;;4.31;100.00
74524;BME280;63074;44.696;10.358;2023-03-03T02:56:07;100025.09;;;4.36;100.00
74524;BME280;63074;44.696;10.358;2023-03-03T02:58:35;100030.84;;;4.40;100.00
74524;BME280;63074;44.696;10.358;2023-03-03T03:01:02;100030.28;;;4.45;100.00
74524;BME280;63074;44.696;10.358;2023-03-03T03:03:28;100024.56;;;4.48;100.00
74524;BME280;63074;44.696;10.358;2023-03-03T03:05:54;100025.78;;;4.45;100.00
74524;BME280;63074;44.696;10.358;2023-03-03T03:08:21;100021.03;;;4.40;100.00
74524;BME280;63074;44.696;10.358;2023-03-03T03:10:47;100027.56;;;4.38;100.00
74524;BME280;63074;44.696;10.358;2023-03-03T03:13:14;100029.41;;;4.31;100.00
74524;BME280;63074;44.696;10.358;2023-03-03T03:15:40;100021.44;;;4.37;100.00
74524;BME280;63074;44.696;10.358;2023-03-03T03:18:06;100017.75;;;4.38;100.00
74524;BME280;63074;44.696;10.358;2023-03-03T03:20:36;100020.22;;;4.40;100.00
74524;BME280;63074;44.696;10.358;2023-03-03T03:23:03;100020.03;;;4.41;100.00
74524;BME280;63074;44.696;10.358;2023-03-03T03:25:29;100021.03;;;4.40;100.00
74524;BME280;63074;44.696;10.358;2023-03-03T03:27:55;100022.69;;;4.41;100.00
74524;BME280;63074;44.696;10.358;2023-03-03T03:30:21;100015.97;;;4.46;100.00
74524;BME280;63074;44.696;10.358;2023-03-03T03:32:47;100017.38;;;4.41;100.00
74524;BME280;63074;44.696;10.358;2023-03-03T03:35:17;100018.81;;;4.44;100.00
74524;BME280;63074;44.696;10.358;2023-03-03T03:37:43;100016.59;;;4.48;100.00
74524;BME280;63074;44.696;10.358;2023-03-03T03:40:10;100011.66;;;4.45;100.00
74524;BME280;63074;44.696;10.358;2023-03-03T03:42:37;100015.34;;;4.44;100.00
74524;BME280;63074;44.696;10.358;2023-03-03T03:45:05;100018.00;;;4.44;100.00
74524;BME280;63074;44.696;10.358;2023-03-03T03:47:31;100007.72;;;4.40;100.00
74524;BME280;63074;44.696;10.358;2023-03-03T03:49:57;100018.63;;;4.46;100.00
74524;BME280;63074;44.696;10.358;2023-03-03T03:52:23;100013.72;;;4.49;100.00
74524;BME280;63074;44.696;10.358;2023-03-03T03:54:49;100015.13;;;4.45;100.00
74524;BME280;63074;44.696;10.358;2023-03-03T03:57:15;100012.22;;;4.40;100.00
74524;BME280;63074;44.696;10.358;2023-03-03T03:59:42;100010.78;;;4.37;100.00
74524;BME280;63074;44.696;10.358;2023-03-03T04:02:08;100005.47;;;4.37;100.00
74524;BME280;63074;44.696;10.358;2023-03-03T04:04:34;100005.84;;;4.34;100.00
74524;BME280;63074;44.696;10.358;2023-03-03T04:07:01;100006.91;;;4.40;100.00
74524;BME280;63074;44.696;10.358;2023-03-03T04:09:27;100000.75;;;4.33;100.00
74524;BME280;63074;44.696;10.358;2023-03-03T04:11:53;99998.88;;;4.27;100.00
74524;BME280;63074;44.696;10.358;2023-03-03T04:14:19;100006.03;;;4.26;100.00
74524;BME280;63074;44.696;10.358;2023-03-03T04:16:45;100001.53;;;4.27;100.00
74524;BME280;63074;44.696;10.358;2023-03-03T04:19:12;100000.91;;;4.25;100.00
74524;BME280;63074;44.696;10.358;2023-03-03T04:21:38;99995.78;;;4.23;100.00
74524;BME280;63074;44.696;10.358;2023-03-03T04:24:04;99991.09;;;4.25;100.00
74524;BME280;63074;44.696;10.358;2023-03-03T04:26:30;99993.56;;;4.27;100.00
74524;BME280;63074;44.696;10.358;2023-03-03T04:28:57;99995.53;;;4.18;100.00
74524;BME280;63074;44.696;10.358;2023-03-03T04:31:24;99992.44;;;4.15;100.00
74524;BME280;63074;44.696;10.358;2023-03-03T04:33:51;99988.97;;;4.14;100.00
74524;BME280;63074;44.696;10.358;2023-03-03T04:36:19;99988.91;;;4.07;100.00
74524;BME280;63074;44.696;10.358;2023-03-03T04:38:45;99991.19;;;3.83;100.00
74524;BME280;63074;44.696;10.358;2023-03-03T04:41:11;99993.47;;;3.86;100.00
74524;BME280;63074;44.696;10.358;2023-03-03T04:43:38;100000.56;;;3.79;100.00
74524;BME280;63074;44.696;10.358;2023-03-03T04:46:04;99996.56;;;3.61;100.00
74524;BME280;63074;44.696;10.358;2023-03-03T04:48:30;99991.75;;;3.50;100.00
74524;BME280;63074;44.696;10.358;2023-03-03T04:50:56;99988.59;;;3.61;100.00
74524;BME280;63074;44.696;10.358;2023-03-03T04:53:23;99984.44;;;3.80;100.00
74524;BME280;63074;44.696;10.358;2023-03-03T04:55:55;99992.66;;;3.85;100.00
74524;BME280;63074;44.696;10.358;2023-03-03T04:58:21;99995.03;;;3.73;100.00
74524;BME280;63074;44.696;10.358;2023-03-03T05:00:54;99995.63;;;3.76;100.00
74524;BME280;63074;44.696;10.358;2023-03-03T05:03:20;99991.38;;;3.81;100.00
74524;BME280;63074;44.696;10.358;2023-03-03T05:05:47;99994.72;;;3.62;100.00
74524;BME280;63074;44.696;10.358;2023-03-03T05:08:14;99989.53;;;3.54;100.00
74524;BME280;63074;44.696;10.358;2023-03-03T05:10:40;99986.97;;;3.39;100.00
74524;BME280;63074;44.696;10.358;2023-03-03T05:13:06;99992.38;;;3.31;100.00
74524;BME280;63074;44.696;10.358;2023-03-03T05:15:34;99988.91;;;3.30;100.00
74524;BME280;63074;44.696;10.358;2023-03-03T05:18:00;99988.66;;;3.68;100.00
74524;BME280;63074;44.696;10.358;2023-03-03T05:20:26;99992.69;;;3.64;100.00
74524;BME280;63074;44.696;10.358;2023-03-03T05:22:52;100000.03;;;3.62;100.00
74524;BME280;63074;44.696;10.358;2023-03-03T05:25:19;99995.00;;;3.46;100.00
74524;BME280;63074;44.696;10.358;2023-03-03T05:27:46;99984.22;;;3.54;100.00
74524;BME280;63074;44.696;10.358;2023-03-03T05:30:12;99996.38;;;3.42;100.00
74524;BME280;63074;44.696;10.358;2023-03-03T05:32:38;99993.28;;;3.38;100.00
74524;BME280;63074;44.696;10.358;2023-03-03T05:35:05;99993.91;;;3.61;100.00
74524;BME280;63074;44.696;10.358;2023-03-03T05:37:31;99989.34;;;3.55;100.00
74524;BME280;63074;44.696;10.358;2023-03-03T05:39:57;99993.16;;;3.46;100.00
74524;BME280;63074;44.696;10.358;2023-03-03T05:42:24;99991.56;;;3.52;100.00
74524;BME280;63074;44.696;10.358;2023-03-03T05:44:50;99988.44;;;3.69;100.00
74524;BME280;63074;44.696;10.358;2023-03-03T05:47:16;99993.03;;;3.33;100.00
74524;BME280;63074;44.696;10.358;2023-03-03T05:49:42;99991.66;;;3.16;100.00
74524;BME280;63074;44.696;10.358;2023-03-03T05:52:08;99992.59;;;3.29;100.00
74524;BME280;63074;44.696;10.358;2023-03-03T05:54:35;99996.56;;;3.40;100.00
74524;BME280;63074;44.696;10.358;2023-03-03T05:57:01;99993.50;;;3.00;100.00
74524;BME280;63074;44.696;10.358;2023-03-03T05:59:27;99986.19;;;3.24;100.00
74524;BME280;63074;44.696;10.358;2023-03-03T06:01:53;99986.69;;;3.55;100.00
74524;BME280;63074;44.696;10.358;2023-03-03T06:04:20;99986.69;;;3.55;100.00
74524;BME280;63074;44.696;10.358;2023-03-03T06:06:46;99986.81;;;3.68;100.00
74524;BME280;63074;44.696;10.358;2023-03-03T06:09:12;99987.81;;;3.67;100.00
74524;BME280;63074;44.696;10.358;2023-03-03T06:11:38;99990.66;;;3.66;100.00
74524;BME280;63074;44.696;10.358;2023-03-03T06:14:04;99988.41;;;3.63;100.00
74524;BME280;63074;44.696;10.358;2023-03-03T06:16:30;99988.25;;;3.71;100.00
74524;BME280;63074;44.696;10.358;2023-03-03T06:18:57;99976.44;;;3.73;100.00
74524;BME280;63074;44.696;10.358;2023-03-03T06:21:23;99982.41;;;3.82;100.00
74524;BME280;63074;44.696;10.358;2023-03-03T06:23:49;99982.59;;;3.81;100.00
74524;BME280;63074;44.696;10.358;2023-03-03T06:26:15;99976.91;;;3.84;100.00
74524;BME280;63074;44.696;10.358;2023-03-03T06:28:41;99985.94;;;3.89;100.00
74524;BME280;63074;44.696;10.358;2023-03-03T06:31:07;99982.31;;;3.97;100.00
74524;BME280;63074;44.696;10.358;2023-03-03T06:33:34;99982.56;;;4.02;100.00
74524;BME280;63074;44.696;10.358;2023-03-03T06:36:00;99984.03;;;4.11;100.00
74524;BME280;63074;44.696;10.358;2023-03-03T06:38:26;99987.94;;;4.15;100.00
74524;BME280;63074;44.696;10.358;2023-03-03T06:40:52;99995.16;;;4.21;100.00
74524;BME280;63074;44.696;10.358;2023-03-03T06:43:18;99992.88;;;4.18;100.00
74524;BME280;63074;44.696;10.358;2023-03-03T06:45:45;99997.81;;;4.21;100.00
74524;BME280;63074;44.696;10.358;2023-03-03T06:48:11;100001.06;;;4.17;100.00
74524;BME280;63074;44.696;10.358;2023-03-03T06:50:37;100001.28;;;4.22;100.00
74524;BME280;63074;44.696;10.358;2023-03-03T06:53:11;100007.81;;;4.19;100.00
74524;BME280;63074;44.696;10.358;2023-03-03T06:55:38;100002.13;;;4.22;100.00
74524;BME280;63074;44.696;10.358;2023-03-03T06:58:19;100010.56;;;4.32;100.00
74524;BME280;63074;44.696;10.358;2023-03-03T07:00:55;100012.44;;;4.38;100.00
74524;BME280;63074;44.696;10.358;2023-03-03T07:03:29;100016.59;;;4.48;100.00
74524;BME280;63074;44.696;10.358;2023-03-03T07:05:57;100020.31;;;4.53;100.00
74524;BME280;63074;44.696;10.358;2023-03-03T07:08:24;100019.72;;;4.58;100.00
74524;BME280;63074;44.696;10.358;2023-03-03T07:10:52;100015.03;;;4.60;100.00
74524;BME280;63074;44.696;10.358;2023-03-03T07:15:45;100021.91;;;4.89;100.00
74524;BME280;63074;44.696;10.358;2023-03-03T07:18:46;100022.97;;;5.01;100.00
74524;BME280;63074;44.696;10.358;2023-03-03T07:21:20;100029.78;;;5.17;100.00
74524;BME280;63074;44.696;10.358;2023-03-03T07:23:48;100029.00;;;5.36;100.00
74524;BME280;63074;44.696;10.358;2023-03-03T07:26:18;100034.78;;;5.46;100.00
74524;BME280;63074;44.696;10.358;2023-03-03T07:28:54;100033.13;;;5.58;100.00
74524;BME280;63074;44.696;10.358;2023-03-03T07:31:38;100033.56;;;5.68;100.00
74524;BME280;63074;44.696;10.358;2023-03-03T07:34:26;100036.03;;;5.76;100.00
74524;BME280;63074;44.696;10.358;2023-03-03T07:36:58;100038.72;;;5.90;100.00
74524;BME280;63074;44.696;10.358;2023-03-03T07:39:34;100041.81;;;6.00;100.00
74524;BME280;63074;44.696;10.358;2023-03-03T07:44:59;100050.81;;;6.19;100.00
74524;BME280;63074;44.696;10.358;2023-03-03T07:47:35;100049.78;;;6.26;100.00
74524;BME280;63074;44.696;10.358;2023-03-03T07:50:14;100041.94;;;6.38;100.00
74524;BME280;63074;44.696;10.358;2023-03-03T07:53:01;100052.00;;;6.42;100.00
74524;BME280;63074;44.696;10.358;2023-03-03T07:55:36;100051.38;;;6.54;100.00
74524;BME280;63074;44.696;10.358;2023-03-03T08:03:15;100058.47;;;6.86;100.00
74524;BME280;63074;44.696;10.358;2023-03-03T08:05:43;100051.25;;;6.93;100.00
74524;BME280;63074;44.696;10.358;2023-03-03T08:10:49;100055.88;;;7.18;100.00
74524;BME280;63074;44.696;10.358;2023-03-03T08:18:42;100064.63;;;7.31;100.00
74524;BME280;63074;44.696;10.358;2023-03-03T08:21:26;100059.22;;;7.44;100.00
74524;BME280;63074;44.696;10.358;2023-03-03T08:23:53;100065.72;;;7.55;100.00
74524;BME280;63074;44.696;10.358;2023-03-03T08:26:20;100058.13;;;7.52;100.00
74524;BME280;63074;44.696;10.358;2023-03-03T08:28:47;100054.97;;;7.68;100.00
74524;BME280;63074;44.696;10.358;2023-03-03T08:31:14;100062.66;;;7.83;100.00
74524;BME280;63074;44.696;10.358;2023-03-03T08:33:40;100063.88;;;7.87;100.00
74524;BME280;63074;44.696;10.358;2023-03-03T08:36:07;100060.72;;;7.97;100.00
74524;BME280;63074;44.696;10.358;2023-03-03T08:38:33;100063.34;;;8.03;100.00
74524;BME280;63074;44.696;10.358;2023-03-03T08:41:00;100064.59;;;8.01;100.00
74524;BME280;63074;44.696;10.358;2023-03-03T08:43:26;100068.31;;;8.00;100.00
74524;BME280;63074;44.696;10.358;2023-03-03T08:45:56;100063.72;;;8.32;100.00
74524;BME280;63074;44.696;10.358;2023-03-03T08:48:24;100055.41;;;8.15;100.00
74524;BME280;63074;44.696;10.358;2023-03-03T08:50:51;100057.09;;;8.09;100.00
74524;BME280;63074;44.696;10.358;2023-03-03T08:53:18;100067.50;;;8.24;100.00
74524;BME280;63074;44.696;10.358;2023-03-03T08:55:45;100066.00;;;8.28;100.00
74524;BME280;63074;44.696;10.358;2023-03-03T08:58:11;100056.41;;;8.45;100.00
74524;BME280;63074;44.696;10.358;2023-03-03T09:00:38;100064.66;;;8.44;100.00
74524;BME280;63074;44.696;10.358;2023-03-03T09:03:04;100054.31;;;8.48;100.00
74524;BME280;63074;44.696;10.358;2023-03-03T09:05:35;100062.00;;;8.62;100.00
74524;BME280;63074;44.696;10.358;2023-03-03T09:08:02;100057.09;;;8.59;100.00
74524;BME280;63074;44.696;10.358;2023-03-03T09:10:29;100061.47;;;8.72;100.00
74524;BME280;63074;44.696;10.358;2023-03-03T09:12:59;100064.38;;;8.70;100.00
74524;BME280;63074;44.696;10.358;2023-03-03T09:15:35;100061.63;;;8.59;100.00
74524;BME280;63074;44.696;10.358;2023-03-03T09:20:41;100051.22;;;8.87;100.00
74524;BME280;63074;44.696;10.358;2023-03-03T09:25:53;100057.88;;;8.96;100.00
74524;BME280;63074;44.696;10.358;2023-03-03T09:28:31;100059.84;;;8.89;100.00
74524;BME280;63074;44.696;10.358;2023-03-03T09:31:00;100058.03;;;9.01;100.00
74524;BME280;63074;44.696;10.358;2023-03-03T09:33:30;100053.28;;;9.22;100.00
74524;BME280;63074;44.696;10.358;2023-03-03T09:36:10;100054.31;;;9.21;100.00
74524;BME280;63074;44.696;10.358;2023-03-03T09:38:43;100057.59;;;9.23;100.00
74524;BME280;63074;44.696;10.358;2023-03-03T09:41:35;100059.09;;;9.00;100.00
74524;BME280;63074;44.696;10.358;2023-03-03T10:22:01;100058.63;;;10.05;100.00
74524;BME280;63074;44.696;10.358;2023-03-03T10:27:38;100055.81;;;10.00;100.00
74524;BME280;63074;44.696;10.358;2023-03-03T10:50:13;100065.69;;;10.53;100.00
74524;BME280;63074;44.696;10.358;2023-03-03T10:59:14;100062.09;;;10.99;100.00
74524;BME280;63074;44.696;10.358;2023-03-03T11:02:00;100057.75;;;11.09;100.00
74524;BME280;63074;44.696;10.358;2023-03-03T11:04:36;100063.84;;;11.05;100.00
74524;BME280;63074;44.696;10.358;2023-03-03T11:09:53;100071.03;;;12.18;100.00
74524;BME280;63074;44.696;10.358;2023-03-03T11:21:28;100055.69;;;12.74;100.00
74524;BME280;63074;44.696;10.358;2023-03-03T11:24:00;100054.75;;;13.24;100.00
74524;BME280;63074;44.696;10.358;2023-03-03T11:31:37;100043.56;;;12.93;100.00
74524;BME280;63074;44.696;10.358;2023-03-03T11:39:53;100040.53;;;11.67;100.00
74524;BME280;63074;44.696;10.358;2023-03-03T11:45:28;100034.56;;;12.66;100.00
74524;BME280;63074;44.696;10.358;2023-03-03T11:56:38;100021.56;;;14.19;100.00
74524;BME280;63074;44.696;10.358;2023-03-03T12:01:52;100020.16;;;15.01;97.80
74524;BME280;63074;44.696;10.358;2023-03-03T12:04:20;100011.31;;;15.26;96.79
74524;BME280;63074;44.696;10.358;2023-03-03T12:07:15;100021.06;;;15.37;95.76
74524;BME280;63074;44.696;10.358;2023-03-03T12:12:50;100015.00;;;15.04;79.41
74524;BME280;63074;44.696;10.358;2023-03-03T12:15:25;100006.25;;;16.15;88.43
74524;BME280;63074;44.696;10.358;2023-03-03T12:23:27;100016.69;;;20.37;65.40
74524;BME280;63074;44.696;10.358;2023-03-03T12:29:03;100007.81;;;19.05;59.05
74524;BME280;63074;44.696;10.358;2023-03-03T12:34:33;100002.88;;;20.75;57.50
74524;BME280;63074;44.696;10.358;2023-03-03T12:37:27;99999.19;;;22.23;53.52
74524;BME280;63074;44.696;10.358;2023-03-03T12:40:30;100010.28;;;22.80;52.89
74524;BME280;63074;44.696;10.358;2023-03-03T12:46:10;100002.13;;;24.10;45.92
74524;BME280;63074;44.696;10.358;2023-03-03T12:48:42;100001.84;;;23.85;45.98
74524;BME280;63074;44.696;10.358;2023-03-03T12:54:34;99999.19;;;24.32;47.41
74524;BME280;63074;44.696;10.358;2023-03-03T12:57:06;99999.56;;;24.05;45.96
74524;BME280;63074;44.696;10.358;2023-03-03T13:00:15;99995.44;;;21.16;50.87
74524;BME280;63074;44.696;10.358;2023-03-03T13:05:59;99994.22;;;21.09;53.45
74524;BME280;63074;44.696;10.358;2023-03-03T13:08:52;99983.72;;;24.19;45.67
74524;BME280;63074;44.696;10.358;2023-03-03T13:13:57;99996.25;;;25.55;41.38
74524;BME280;63074;44.696;10.358;2023-03-03T13:16:35;99996.44;;;25.08;41.80
74524;BME280;63074;44.696;10.358;2023-03-03T13:19:28;99997.19;;;25.80;40.80
74524;BME280;63074;44.696;10.358;2023-03-03T13:22:13;99990.19;;;26.28;40.32
74524;BME280;63074;44.696;10.358;2023-03-03T13:27:30;99998.19;;;19.69;52.91
74524;BME280;63074;44.696;10.358;2023-03-03T13:30:11;99999.66;;;16.57;60.62
74524;BME280;63074;44.696;10.358;2023-03-03T13:32:48;99990.22;;;16.44;64.20
74524;BME280;63074;44.696;10.358;2023-03-03T13:35:58;99993.25;;;15.97;67.00
74524;BME280;63074;44.696;10.358;2023-03-03T13:38:09;99977.22;;;19.51;59.09
74524;BME280;63074;44.696;10.358;2023-03-03T13:40:42;99983.78;;;22.67;45.93
74524;BME280;63074;44.696;10.358;2023-03-03T13:43:57;99987.97;;;23.82;45.19
74524;BME280;63074;44.696;10.358;2023-03-03T13:46:13;99987.41;;;25.08;43.53
74524;BME280;63074;44.696;10.358;2023-03-03T13:49:10;99977.59;;;25.61;43.07
74524;BME280;63074;44.696;10.358;2023-03-03T13:52:08;99979.53;;;24.13;42.80
74524;BME280;63074;44.696;10.358;2023-03-03T13:54:45;99978.59;;;23.48;43.56
74524;BME280;63074;44.696;10.358;2023-03-03T13:57:57;99977.31;;;23.46;42.32
74524;BME280;63074;44.696;10.358;2023-03-03T14:03:44;99980.78;;;24.24;42.40
74524;BME280;63074;44.696;10.358;2023-03-03T14:06:21;99981.31;;;24.09;41.48
74524;BME280;63074;44.696;10.358;2023-03-03T14:12:05;99969.72;;;23.08;42.17
74524;BME280;63074;44.696;10.358;2023-03-03T14:20:11;99968.31;;;23.63;45.72
74524;BME280;63074;44.696;10.358;2023-03-03T14:22:58;99970.38;;;23.48;43.97
74524;BME280;63074;44.696;10.358;2023-03-03T14:25:26;99966.19;;;23.34;43.32
74524;BME280;63074;44.696;10.358;2023-03-03T14:28:22;99962.31;;;23.86;43.55
74524;BME280;63074;44.696;10.358;2023-03-03T14:30:49;99961.88;;;23.59;42.17
74524;BME280;63074;44.696;10.358;2023-03-03T14:33:29;99962.00;;;23.88;42.47
74524;BME280;63074;44.696;10.358;2023-03-03T14:43:39;99953.31;;;19.80;47.96
74524;BME280;63074;44.696;10.358;2023-03-03T14:48:52;99953.22;;;22.03;46.03
74524;BME280;63074;44.696;10.358;2023-03-03T14:51:26;99946.28;;;22.85;42.94
74524;BME280;63074;44.696;10.358;2023-03-03T14:53:55;99951.66;;;23.68;43.52
74524;BME280;63074;44.696;10.358;2023-03-03T14:56:29;99953.25;;;24.50;41.08
74524;BME280;63074;44.696;10.358;2023-03-03T14:59:20;99952.34;;;24.37;41.72
74524;BME280;63074;44.696;10.358;2023-03-03T15:01:57;99951.00;;;23.88;43.03
74524;BME280;63074;44.696;10.358;2023-03-03T15:04:27;99951.16;;;21.86;42.92
74524;BME280;63074;44.696;10.358;2023-03-03T15:06:55;99945.16;;;22.38;41.95
74524;BME280;63074;44.696;10.358;2023-03-03T15:11:54;99958.44;;;23.01;40.50
74524;BME280;63074;44.696;10.358;2023-03-03T15:14:34;99945.09;;;23.60;41.02
74524;BME280;63074;44.696;10.358;2023-03-03T15:22:46;99949.44;;;20.96;46.78
74524;BME280;63074;44.696;10.358;2023-03-03T15:25:21;99945.41;;;17.90;50.29
74524;BME280;63074;44.696;10.358;2023-03-03T15:28:26;99942.78;;;17.01;53.39
74524;BME280;63074;44.696;10.358;2023-03-03T15:33:46;99947.47;;;19.87;51.57
74524;BME280;63074;44.696;10.358;2023-03-03T15:42:12;99948.09;;;19.65;52.10
74524;BME280;63074;44.696;10.358;2023-03-03T15:50:25;99952.81;;;18.37;53.16
74524;BME280;63074;44.696;10.358;2023-03-03T15:53:05;99950.66;;;18.34;54.01
74524;BME280;63074;44.696;10.358;2023-03-03T16:01:25;99952.03;;;17.00;62.06
74524;BME280;63074;44.696;10.358;2023-03-03T16:04:07;99956.84;;;17.52;61.07
74524;BME280;63074;44.696;10.358;2023-03-03T16:17:13;99968.84;;;16.12;67.15
74524;BME280;63074;44.696;10.358;2023-03-03T16:33:07;99971.28;;;14.55;89.62
74524;BME280;63074;44.696;10.358;2023-03-03T16:35:43;99969.59;;;14.44;89.90
74524;BME280;63074;44.696;10.358;2023-03-03T16:38:23;99969.31;;;13.66;97.14
74524;BME280;63074;44.696;10.358;2023-03-03T16:40:59;99970.66;;;13.37;100.00
74524;BME280;63074;44.696;10.358;2023-03-03T16:43:42;99970.31;;;13.28;100.00
74524;BME280;63074;44.696;10.358;2023-03-03T16:46:40;99977.84;;;13.04;100.00
74524;BME280;63074;44.696;10.358;2023-03-03T17:08:47;99983.72;;;11.97;100.00
74524;BME280;63074;44.696;10.358;2023-03-03T17:16:59;99994.22;;;11.48;100.00
74524;BME280;63074;44.696;10.358;2023-03-03T17:22:33;100004.19;;;11.36;100.00
74524;BME280;63074;44.696;10.358;2023-03-03T17:33:44;100010.69;;;10.95;100.00
74524;BME280;63074;44.696;10.358;2023-03-03T17:36:44;100022.28;;;10.84;100.00
74524;BME280;63074;44.696;10.358;2023-03-03T18:00:48;100046.66;;;10.19;100.00
74524;BME280;63074;44.696;10.358;2023-03-03T18:03:59;100054.09;;;10.05;100.00
74524;BME280;63074;44.696;10.358;2023-03-03T18:06:28;100045.78;;;10.19;100.00
74524;BME280;63074;44.696;10.358;2023-03-03T18:12:09;100048.81;;;9.99;100.00
74524;BME280;63074;44.696;10.358;2023-03-03T18:17:37;100058.25;;;9.78;100.00
74524;BME280;63074;44.696;10.358;2023-03-03T18:26:04;100065.88;;;9.63;100.00
74524;BME280;63074;44.696;10.358;2023-03-03T18:28:50;100069.25;;;9.58;100.00